Twin Bridges, Montana
Current Conditions -  °F | °C
As of 5:53 PM on Wednesday 17 Dec 2014 (Local Time) from KDLN Reporting Station
Clear Clear  
Wind Chill: 11°   Ceiling: Unl
Heat Index: 23°   Visibility: 10mi
Dew Point: 16°   Wind: 13mph
Humidity: 74%   Direction: 220°SW
Pressure: 29.93"   Gusts: NA
Location:  45.54°N, 112.33°W
Report Text: KDLN 180053Z AUTO 22011KT 10SM CLR M05/M09 A2993 RMK AO2 SLP178 T10501089
Loading
Personal Weather Stations






























Interactive Weather Map New forecast layout! Learn more

10-Day Weather Forecast

Advertisements
Track Severe Weather on mobile